^^
Datos históricos de la estación: Murcia-Puente Tocinos
Diario Informe para Enero 16, 2019 Unidades:  Métrico    Inglés   Ambas
Diario Semanal Mensual Anual Configurable
  Máximo: Mínimo: Media:
Temperatura: 17.3 °C 7.3 °C 11 °C
Punto de rocio: 9.1 °C 5.4 °C 6.7 °C
Humedad: 89% 47% 76%
Velocidad viento: 9.7km/h 0.0km/h 5.1km/h
Racha viento: 14.5km/h - -
Viento- - SSW
Presión: 1020.1 hPa 1014.7 hPa -
Precipitación: 0.0 mm    
Historical Graphs
 
 
Tabla de datos para Enero 16, 2019
Hora Temperatura Punto de rocio Presión Viento Velocidad viento Racha viento Humedad Intensidad lluvia(por hora) Nubes
00:00 9.4 °C 7.2 °C 1020.1 hPa SSW 3.2 km/h 8.0 km/h 86% 0.0 mm CLR
00:05 9.3 °C 7.1 °C 1020.0 hPa South 4.7 km/h 7.4 km/h 86% 0.0 mm CLR
00:10 9.2 °C 7.0 °C 1020.0 hPa South 5.0 km/h 5.6 km/h 86% 0.0 mm CLR
00:15 9.1 °C 6.9 °C 1020.0 hPa South 4.8 km/h 8.0 km/h 86% 0.0 mm CLR
00:20 8.9 °C 6.7 °C 1020.0 hPa South 3.2 km/h 9.7 km/h 86% 0.0 mm CLR
00:25 8.8 °C 6.8 °C 1020.0 hPa South 3.2 km/h 9.7 km/h 87% 0.0 mm CLR
00:29 8.7 °C 6.7 °C 1020.0 hPa South 6.4 km/h 7.4 km/h 87% 0.0 mm CLR
00:35 8.6 °C 6.6 °C 1019.9 hPa South 6.4 km/h 7.4 km/h 87% 0.0 mm CLR
00:39 8.6 °C 6.6 °C 1019.9 hPa South 5.0 km/h 7.4 km/h 87% 0.0 mm CLR
00:45 8.5 °C 6.6 °C 1019.9 hPa South 5.0 km/h 7.4 km/h 88% 0.0 mm CLR
00:49 8.4 °C 6.5 °C 1019.9 hPa South 5.0 km/h 7.4 km/h 88% 0.0 mm CLR
00:55 8.4 °C 6.5 °C 1019.9 hPa South 5.0 km/h 7.4 km/h 88% 0.0 mm CLR
01:00 8.4 °C 6.5 °C 1019.9 hPa South 4.8 km/h 9.7 km/h 88% 0.0 mm CLR
01:05 8.4 °C 6.5 °C 1019.8 hPa South 5.0 km/h 7.4 km/h 88% 0.0 mm CLR
01:10 8.4 °C 6.5 °C 1019.8 hPa South 5.0 km/h 3.9 km/h 88% 0.0 mm CLR
01:15 8.4 °C 6.5 °C 1019.8 hPa South 5.0 km/h   88% 0.0 mm CLR
01:20 8.3 °C 6.3 °C 1019.7 hPa South 3.2 km/h 3.2 km/h 87% 0.0 mm CLR
01:25 8.3 °C 6.3 °C 1019.7 hPa South 2.9 km/h 5.6 km/h 87% 0.0 mm CLR
01:30 8.2 °C 6.2 °C 1019.7 hPa South 3.2 km/h 8.0 km/h 87% 0.0 mm CLR
01:35 8.1 °C 6.1 °C 1019.5 hPa South 3.2 km/h 8.0 km/h 87% 0.0 mm CLR
01:40 8.0 °C 5.9 °C 1019.5 hPa South 3.9 km/h 5.6 km/h 87% 0.0 mm CLR
01:45 7.9 °C 5.9 °C 1019.5 hPa South 3.2 km/h 6.4 km/h 87% 0.0 mm CLR
01:50 7.8 °C 5.9 °C 1019.4 hPa South 3.9 km/h 7.4 km/h 88% 0.0 mm CLR
01:55 7.8 °C 5.9 °C 1019.4 hPa South 3.9 km/h 3.7 km/h 88% 0.0 mm CLR
02:00 7.7 °C 5.8 °C 1019.4 hPa South 3.2 km/h 8.0 km/h 88% 0.0 mm CLR
02:05 7.7 °C 5.8 °C 1019.4 hPa South 3.2 km/h 8.0 km/h 88% 0.0 mm CLR
02:10 7.7 °C 5.8 °C 1019.4 hPa South 3.2 km/h 8.0 km/h 88% 0.0 mm CLR
02:15 7.6 °C 5.7 °C 1019.4 hPa South 4.7 km/h 7.4 km/h 88% 0.0 mm CLR
02:20 7.6 °C 5.9 °C 1019.3 hPa South 3.2 km/h 8.0 km/h 89% 0.0 mm CLR
02:25 7.6 °C 5.9 °C 1019.3 hPa South 3.2 km/h 8.0 km/h 89% 0.0 mm CLR
02:30 7.6 °C 5.9 °C 1019.3 hPa SSW 5.0 km/h 9.3 km/h 89% 0.0 mm CLR
02:35 7.6 °C 5.9 °C 1019.3 hPa SSW 5.0 km/h 9.3 km/h 89% 0.0 mm CLR
02:40 7.6 °C 5.9 °C 1019.3 hPa SSW 8.0 km/h 9.7 km/h 89% 0.0 mm CLR
02:45 7.6 °C 5.9 °C 1019.3 hPa South 6.4 km/h 7.4 km/h 89% 0.0 mm CLR
02:50 7.5 °C 5.8 °C 1019.4 hPa South 4.8 km/h 9.7 km/h 89% 0.0 mm FEW
02:55 7.4 °C 5.7 °C 1019.4 hPa South 5.8 km/h 9.5 km/h 89% 0.0 mm FEW
03:00 7.3 °C 5.6 °C 1019.4 hPa South 8.0 km/h 11.3 km/h 89% 0.0 mm FEW
03:05 7.3 °C 5.6 °C 1019.4 hPa SSW 8.0 km/h 9.7 km/h 89% 0.0 mm FEW
03:10 7.4 °C 5.7 °C 1019.4 hPa SSW 8.0 km/h 9.7 km/h 89% 0.0 mm FEW
03:15 7.6 °C 5.9 °C 1019.4 hPa SSW 6.4 km/h 7.4 km/h 89% 0.0 mm FEW
03:20 7.6 °C 5.9 °C 1019.4 hPa SSW 4.8 km/h 8.0 km/h 89% 0.0 mm BKN
03:25 7.7 °C 5.8 °C 1019.4 hPa SSW 5.8 km/h 7.6 km/h 88% 0.0 mm BKN
03:29 7.7 °C 5.8 °C 1019.4 hPa SSW 5.8 km/h 9.3 km/h 88% 0.0 mm BKN
03:35 7.7 °C 5.8 °C 1019.4 hPa South 5.8 km/h 7.4 km/h 88% 0.0 mm BKN
03:40 7.8 °C 5.9 °C 1019.4 hPa SSW 4.8 km/h 11.3 km/h 88% 0.0 mm BKN
03:45 7.9 °C 6.1 °C 1019.4 hPa SW 5.8 km/h 11.1 km/h 88% 0.0 mm BKN
03:50 7.9 °C 6.1 °C 1019.3 hPa SSW 8.0 km/h 11.3 km/h 88% 0.0 mm OVC
03:55 7.9 °C 6.1 °C 1019.3 hPa SSW 8.0 km/h 11.3 km/h 88% 0.0 mm OVC
04:00 7.9 °C 5.9 °C 1019.3 hPa SSW 8.0 km/h 9.7 km/h 87% 0.0 mm OVC
04:05 7.9 °C 5.8 °C 1019.3 hPa SSW 8.0 km/h 9.7 km/h 87% 0.0 mm OVC
04:10 7.8 °C 5.8 °C 1019.3 hPa SSW 5.8 km/h 7.4 km/h 87% 0.0 mm OVC
04:15 7.7 °C 5.7 °C 1019.3 hPa SSW 4.8 km/h 9.7 km/h 87% 0.0 mm OVC
04:20 7.6 °C 5.6 °C 1019.3 hPa South 4.8 km/h 8.0 km/h 87% 0.0 mm OVC
04:25 7.5 °C 5.5 °C 1019.3 hPa South 4.8 km/h 8.0 km/h 87% 0.0 mm OVC
04:30 7.4 °C 5.4 °C 1019.3 hPa South 3.2 km/h 8.0 km/h 87% 0.0 mm OVC
04:35 7.4 °C 5.4 °C 1019.1 hPa South 4.7 km/h 7.4 km/h 87% 0.0 mm OVC
04:40 7.4 °C 5.6 °C 1019.1 hPa South 3.9 km/h 7.4 km/h 88% 0.0 mm OVC
04:45 7.5 °C 5.7 °C 1019.1 hPa South 3.9 km/h 3.7 km/h 88% 0.0 mm OVC
04:50 7.6 °C 5.7 °C 1019.0 hPa South 3.2 km/h 4.8 km/h 88% 0.0 mm OVC
04:55 7.6 °C 5.7 °C 1019.0 hPa South 3.2 km/h 4.8 km/h 88% 0.0 mm OVC
05:00 7.7 °C 5.8 °C 1019.0 hPa South 3.2 km/h 8.0 km/h 88% 0.0 mm OVC
05:05 7.8 °C 5.9 °C 1018.9 hPa SW 3.2 km/h 3.9 km/h 88% 0.0 mm OVC
05:10 7.9 °C 6.1 °C 1018.9 hPa SW 3.9 km/h 3.7 km/h 88% 0.0 mm OVC
05:15 7.9 °C 5.9 °C 1018.9 hPa SW 3.2 km/h 3.2 km/h 87% 0.0 mm OVC
05:20 7.9 °C 5.9 °C 1018.8 hPa SW 2.3 km/h   87% 0.0 mm FEW
05:25 7.9 °C 5.9 °C 1018.8 hPa SW 1.6 km/h   87% 0.0 mm FEW
05:30 7.9 °C 5.9 °C 1018.8 hPa Calm     87% 0.0 mm FEW
05:35 8.0 °C 5.9 °C 1018.8 hPa Calm     87% 0.0 mm FEW
05:40 7.9 °C 5.7 °C 1018.8 hPa Calm     86% 0.0 mm FEW
05:45 7.8 °C 5.6 °C 1018.8 hPa Calm   3.7 km/h 86% 0.0 mm FEW
05:50 7.7 °C 5.5 °C 1018.6 hPa SW 1.6 km/h 6.4 km/h 86% 0.0 mm FEW
05:55 7.6 °C 5.6 °C 1018.6 hPa SW 2.3 km/h 3.7 km/h 87% 0.0 mm FEW
06:00 7.5 °C 5.5 °C 1018.6 hPa SW 3.2 km/h 4.8 km/h 87% 0.0 mm FEW
06:05 7.5 °C 5.5 °C 1018.6 hPa South 3.2 km/h 5.6 km/h 87% 0.0 mm FEW
06:10 7.5 °C 5.5 °C 1018.6 hPa SSE 3.9 km/h 7.4 km/h 87% 0.0 mm FEW
06:15 7.5 °C 5.7 °C 1018.6 hPa SSE 3.9 km/h 9.3 km/h 88% 0.0 mm FEW
06:20 7.4 °C 5.6 °C 1018.6 hPa SSE 4.8 km/h 9.7 km/h 88% 0.0 mm OVC
06:25 7.3 °C 5.4 °C 1018.6 hPa SSE 5.8 km/h 7.6 km/h 88% 0.0 mm OVC
06:30 7.3 °C 5.4 °C 1018.6 hPa SSE 6.4 km/h 9.3 km/h 88% 0.0 mm OVC
06:35 7.3 °C 5.6 °C 1018.6 hPa SSE 6.4 km/h 7.4 km/h 89% 0.0 mm OVC
06:40 7.4 °C 5.7 °C 1018.6 hPa SSE 5.8 km/h 9.3 km/h 89% 0.0 mm OVC
06:45 7.4 °C 5.7 °C 1018.6 hPa SSE 4.8 km/h 9.7 km/h 89% 0.0 mm OVC
06:50 7.4 °C 5.6 °C 1018.6 hPa SSE 6.9 km/h 11.1 km/h 88% 0.0 mm BKN
06:55 7.4 °C 5.7 °C 1018.6 hPa South 6.9 km/h 9.3 km/h 89% 0.0 mm BKN
07:00 7.5 °C 5.8 °C 1018.6 hPa South 8.0 km/h 9.7 km/h 89% 0.0 mm BKN
07:05 7.6 °C 5.9 °C 1018.6 hPa SSW 6.4 km/h 7.4 km/h 89% 0.0 mm BKN
07:10 7.7 °C 5.8 °C 1018.6 hPa SSW 6.4 km/h 7.4 km/h 88% 0.0 mm BKN
07:15 7.7 °C 5.9 °C 1018.6 hPa SSW 8.0 km/h 9.7 km/h 88% 0.0 mm BKN
07:20 7.8 °C 5.9 °C 1018.7 hPa SSW 4.8 km/h 8.0 km/h 88% 0.0 mm SCT
07:25 8.0 °C 6.1 °C 1018.7 hPa South 5.0 km/h 7.4 km/h 88% 0.0 mm SCT
07:30 8.1 °C 6.1 °C 1018.7 hPa South 4.8 km/h 8.0 km/h 87% 0.0 mm SCT
07:35 8.2 °C 6.2 °C 1018.8 hPa SSE 5.0 km/h 7.4 km/h 87% 0.0 mm SCT
07:40 8.2 °C 6.2 °C 1018.8 hPa SSE 4.8 km/h 9.7 km/h 87% 0.0 mm SCT
07:45 8.2 °C 6.0 °C 1018.8 hPa SSE 5.0 km/h 9.3 km/h 86% 0.0 mm SCT
07:50 8.2 °C 6.2 °C 1018.8 hPa SSE 6.4 km/h 10.0 km/h 87% 0.0 mm BKN
07:55 8.1 °C 6.1 °C 1018.8 hPa SSE 6.4 km/h 9.3 km/h 87% 0.0 mm BKN
08:00 8.1 °C 6.1 °C 1018.8 hPa SSE 8.0 km/h 11.3 km/h 87% 0.0 mm BKN
08:05 8.1 °C 6.1 °C 1018.7 hPa SSE 8.0 km/h 9.7 km/h 87% 0.0 mm BKN
08:10 8.1 °C 6.1 °C 1018.7 hPa SSE 6.9 km/h 9.3 km/h 87% 0.0 mm BKN
08:15 8.2 °C 6.2 °C 1018.7 hPa South 6.9 km/h 11.1 km/h 87% 0.0 mm BKN
08:20 8.3 °C 6.3 °C 1018.8 hPa South 7.6 km/h 11.1 km/h 87% 0.0 mm BKN
08:25 8.3 °C 6.3 °C 1018.8 hPa SSE 7.6 km/h 7.4 km/h 87% 0.0 mm BKN
08:30 8.4 °C 6.2 °C 1018.8 hPa South 6.9 km/h 11.1 km/h 86% 0.0 mm BKN
08:35 8.4 °C 6.2 °C 1018.9 hPa SSW 6.9 km/h 11.1 km/h 86% 0.0 mm BKN
08:40 8.5 °C 6.3 °C 1018.9 hPa SSW 7.6 km/h 11.1 km/h 86% 0.0 mm BKN
08:45 8.6 °C 6.2 °C 1018.9 hPa SSW 7.6 km/h 11.1 km/h 85% 0.0 mm BKN
08:50 8.7 °C 6.3 °C 1018.9 hPa SSW 8.0 km/h 11.3 km/h 85% 0.0 mm BKN
08:55 8.7 °C 6.3 °C 1018.9 hPa SSW 7.6 km/h 9.3 km/h 85% 0.0 mm BKN
09:00 8.8 °C 6.4 °C 1018.9 hPa SSW 8.0 km/h 9.7 km/h 85% 0.0 mm BKN
09:05 8.8 °C 6.2 °C 1019.0 hPa SW 8.0 km/h 9.7 km/h 84% 0.0 mm BKN
09:10 8.9 °C 6.3 °C 1019.0 hPa SW 6.4 km/h 13.0 km/h 84% 0.0 mm BKN
09:15 8.9 °C 6.2 °C 1019.0 hPa SW 8.0 km/h 12.9 km/h 83% 0.0 mm BKN
09:20 9.0 °C 6.3 °C 1019.1 hPa SW 8.0 km/h 9.7 km/h 83% 0.0 mm SCT
09:25 9.1 °C 6.3 °C 1019.1 hPa SW 8.0 km/h 9.7 km/h 83% 0.0 mm SCT
09:30 9.1 °C 6.2 °C 1019.1 hPa SW 8.0 km/h 11.3 km/h 82% 0.0 mm SCT
09:35 9.1 °C 6.2 °C 1019.2 hPa WSW 8.0 km/h 11.3 km/h 82% 0.0 mm SCT
09:39 9.2 °C 6.3 °C 1019.2 hPa SW 6.4 km/h 9.3 km/h 82% 0.0 mm SCT
09:45 9.2 °C 6.3 °C 1019.2 hPa WSW 6.4 km/h 9.3 km/h 82% 0.0 mm SCT
09:50 9.2 °C 6.3 °C 1019.4 hPa WSW 8.0 km/h 9.7 km/h 82% 0.0 mm SCT
09:55 9.2 °C 6.1 °C 1019.4 hPa WSW 6.4 km/h 7.6 km/h 81% 0.0 mm SCT
10:00 9.3 °C 6.4 °C 1019.4 hPa SW 4.8 km/h 8.0 km/h 82% 0.0 mm SCT
10:05 9.3 °C 6.2 °C 1019.3 hPa SW 4.8 km/h 9.7 km/h 81% 0.0 mm SCT
10:09 9.3 °C 6.2 °C 1019.3 hPa SSW 5.8 km/h 9.3 km/h 81% 0.0 mm SCT
10:15 9.2 °C 6.1 °C 1019.3 hPa SSW 4.8 km/h 9.7 km/h 81% 0.0 mm SCT
10:20 9.2 °C 6.1 °C 1019.3 hPa South 6.9 km/h 7.4 km/h 81% 0.0 mm SCT
10:25 9.2 °C 6.1 °C 1019.3 hPa South 8.0 km/h 9.7 km/h 81% 0.0 mm SCT
10:30 9.2 °C 6.1 °C 1019.3 hPa South 8.0 km/h 12.9 km/h 81% 0.0 mm SCT
10:35 9.3 °C 6.2 °C 1019.5 hPa South 8.0 km/h 11.3 km/h 81% 0.0 mm SCT
10:40 9.3 °C 6.2 °C 1019.5 hPa South 8.0 km/h 12.9 km/h 81% 0.0 mm SCT
10:45 9.3 °C 6.0 °C 1019.5 hPa South 7.6 km/h 9.5 km/h 80% 0.0 mm SCT
10:49 9.4 °C 6.3 °C 1019.5 hPa South 7.6 km/h 9.3 km/h 81% 0.0 mm FEW
10:55 9.7 °C 6.4 °C 1019.5 hPa SSW 8.0 km/h 11.3 km/h 80% 0.0 mm FEW
11:00 10.1 °C 6.4 °C 1019.5 hPa SW 8.0 km/h 14.5 km/h 78% 0.0 mm FEW
11:05 10.2 °C 6.6 °C 1019.4 hPa West 6.4 km/h 13.0 km/h 78% 0.0 mm FEW
11:10 10.1 °C 6.4 °C 1019.4 hPa WSW 8.4 km/h 13.0 km/h 78% 0.0 mm FEW
11:15 10.1 °C 6.4 °C 1019.4 hPa SW 8.4 km/h 11.1 km/h 78% 0.0 mm FEW
11:20 10.2 °C 6.6 °C 1019.2 hPa WSW 9.7 km/h 12.9 km/h 78% 0.0 mm FEW
11:25 10.4 °C 6.7 °C 1019.2 hPa West 9.5 km/h 7.6 km/h 78% 0.0 mm FEW
11:30 10.7 °C 6.7 °C 1019.2 hPa SSW 5.8 km/h 9.3 km/h 76% 0.0 mm FEW
11:35 10.8 °C 6.7 °C 1019.2 hPa SW 5.8 km/h 13.0 km/h 76% 0.0 mm FEW
11:40 11.0 °C 6.7 °C 1019.2 hPa SW 5.8 km/h 3.7 km/h 75% 0.0 mm FEW
11:45 11.2 °C 6.7 °C 1019.2 hPa SW 5.8 km/h 7.4 km/h 74% 0.0 mm FEW
11:50 11.2 °C 6.7 °C 1019.0 hPa WNW 5.0 km/h 9.3 km/h 74% 0.0 mm FEW
11:55 11.2 °C 6.7 °C 1019.0 hPa WSW 5.0 km/h 9.3 km/h 74% 0.0 mm FEW
12:00 11.2 °C 6.7 °C 1019.0 hPa West 4.8 km/h 9.7 km/h 74% 0.0 mm FEW
12:05 11.3 °C 6.8 °C 1018.9 hPa West 5.8 km/h 3.7 km/h 74% 0.0 mm FEW
12:10 11.6 °C 7.2 °C 1018.9 hPa WSW 3.2 km/h 9.7 km/h 74% 0.0 mm FEW
12:15 11.9 °C 7.2 °C 1018.9 hPa SW 4.7 km/h 1.9 km/h 73% 0.0 mm FEW
12:20 12.2 °C 7.3 °C 1018.7 hPa SW 3.2 km/h 11.3 km/h 72% 0.0 mm FEW
12:25 12.3 °C 7.2 °C 1018.7 hPa WSW 3.2 km/h 9.7 km/h 71% 0.0 mm FEW
12:30 12.3 °C 7.2 °C 1018.7 hPa West 4.8 km/h 11.3 km/h 71% 0.0 mm FEW
12:35 12.3 °C 7.2 °C 1018.4 hPa South 5.0 km/h 11.1 km/h 71% 0.0 mm FEW
12:40 12.4 °C 7.3 °C 1018.4 hPa SW 8.0 km/h 11.3 km/h 71% 0.0 mm FEW
12:45 12.6 °C 7.5 °C 1018.4 hPa WSW 6.4 km/h 7.4 km/h 71% 0.0 mm FEW
12:50 12.8 °C 7.3 °C 1018.0 hPa West 5.0 km/h 5.6 km/h 69% 0.0 mm FEW
12:55 12.8 °C 7.4 °C 1018.0 hPa West 5.0 km/h 7.4 km/h 70% 0.0 mm FEW
13:00 13.0 °C 7.4 °C 1018.0 hPa West 3.2 km/h 11.3 km/h 69% 0.0 mm FEW
13:05 13.2 °C 7.4 °C 1017.7 hPa SW 3.9 km/h 11.9 km/h 68% 0.0 mm FEW
13:10 13.3 °C 7.5 °C 1017.7 hPa SW 8.0 km/h 11.3 km/h 68% 0.0 mm FEW
13:15 13.4 °C 7.6 °C 1017.7 hPa SSW 6.4 km/h 5.6 km/h 68% 0.0 mm FEW
13:20 13.4 °C 7.4 °C 1017.4 hPa SW 5.8 km/h 7.4 km/h 67% 0.0 mm FEW
13:25 13.7 °C 7.7 °C 1017.4 hPa South 5.8 km/h 9.3 km/h 67% 0.0 mm FEW
13:30 13.8 °C 7.6 °C 1017.4 hPa SSW 4.8 km/h 11.3 km/h 66% 0.0 mm FEW
13:35 13.9 °C 7.7 °C 1017.1 hPa SSW 4.8 km/h 11.3 km/h 66% 0.0 mm FEW
13:40 14.0 °C 7.5 °C 1017.1 hPa SW 8.0 km/h 11.3 km/h 65% 0.0 mm FEW
13:45 14.1 °C 7.4 °C 1017.1 hPa WSW 6.9 km/h 9.3 km/h 64% 0.0 mm FEW
13:50 14.2 °C 7.5 °C 1016.8 hPa West 6.9 km/h 9.3 km/h 64% 0.0 mm FEW
13:55 14.4 °C 7.4 °C 1016.8 hPa SSW 6.9 km/h 7.6 km/h 63% 0.0 mm FEW
14:00 14.4 °C 7.4 °C 1016.8 hPa WSW 4.8 km/h 9.7 km/h 63% 0.0 mm FEW
14:05 14.6 °C 7.4 °C 1016.6 hPa SSW 5.0 km/h 11.1 km/h 62% 0.0 mm FEW
14:10 14.7 °C 7.5 °C 1016.6 hPa SW 6.9 km/h 9.3 km/h 62% 0.0 mm FEW
14:15 14.8 °C 7.3 °C 1016.6 hPa WSW 6.9 km/h 11.9 km/h 61% 0.0 mm FEW
14:20 14.8 °C 7.3 °C 1016.3 hPa West 6.9 km/h 11.1 km/h 61% 0.0 mm SCT
14:25 14.8 °C 7.3 °C 1016.3 hPa WNW 6.9 km/h 5.6 km/h 61% 0.0 mm SCT
14:30 14.9 °C 6.9 °C 1016.3 hPa West 4.8 km/h 14.5 km/h 59% 0.0 mm SCT
14:35 15.1 °C 7.2 °C 1016.1 hPa West 4.8 km/h 9.7 km/h 59% 0.0 mm SCT
14:40 15.2 °C 7.2 °C 1016.1 hPa WSW 6.9 km/h 3.7 km/h 59% 0.0 mm SCT
14:45 15.4 °C 7.2 °C 1016.1 hPa SW 6.9 km/h 3.7 km/h 58% 0.0 mm SCT
14:50 15.6 °C 7.1 °C 1015.9 hPa SW 3.2 km/h 9.7 km/h 57% 0.0 mm SCT
14:55 15.7 °C 6.7 °C 1015.9 hPa SW 3.2 km/h 11.1 km/h 55% 0.0 mm SCT
15:00 15.8 °C 6.8 °C 1015.9 hPa SW 4.8 km/h 12.9 km/h 55% 0.0 mm SCT
15:05 15.9 °C 6.3 °C 1015.7 hPa West 5.0 km/h 7.4 km/h 53% 0.0 mm SCT
15:10 15.9 °C 5.8 °C 1015.7 hPa South 5.0 km/h 9.3 km/h 51% 0.0 mm SCT
15:15 15.9 °C 5.8 °C 1015.7 hPa SSW 5.0 km/h 7.4 km/h 51% 0.0 mm SCT
15:20 16.1 °C 5.9 °C 1015.6 hPa SE 5.8 km/h 8.4 km/h 51% 0.0 mm FEW
15:25 16.2 °C 6.1 °C 1015.6 hPa SE 5.8 km/h 9.3 km/h 51% 0.0 mm FEW
15:30 16.2 °C 5.8 °C 1015.6 hPa SE 5.8 km/h 9.3 km/h 50% 0.0 mm FEW
15:35 16.2 °C 6.1 °C 1015.6 hPa SSW 5.8 km/h 9.3 km/h 51% 0.0 mm FEW
15:40 16.3 °C 6.1 °C 1015.6 hPa SSW 4.8 km/h 11.3 km/h 51% 0.0 mm FEW
15:45 16.3 °C 6.1 °C 1015.6 hPa WSW 5.0 km/h 13.0 km/h 51% 0.0 mm FEW
15:50 16.4 °C 6.2 °C 1015.5 hPa SW 6.9 km/h 13.0 km/h 51% 0.0 mm FEW
15:55 16.4 °C 5.9 °C 1015.5 hPa WSW 6.9 km/h 7.6 km/h 50% 0.0 mm FEW
16:00 16.5 °C 6.3 °C 1015.5 hPa WSW 4.8 km/h 9.7 km/h 51% 0.0 mm FEW
16:05 16.6 °C 6.1 °C 1015.4 hPa SW 5.0 km/h 9.3 km/h 50% 0.0 mm FEW
16:10 16.6 °C 6.1 °C 1015.4 hPa SW 4.8 km/h 9.7 km/h 50% 0.0 mm FEW
16:15 16.4 °C 5.9 °C 1015.4 hPa ESE 5.0 km/h 5.6 km/h 50% 0.0 mm FEW
16:20 16.4 °C 5.9 °C 1015.3 hPa SE 3.9 km/h 7.4 km/h 50% 0.0 mm FEW
16:25 16.4 °C 5.9 °C 1015.3 hPa SE 3.9 km/h 3.9 km/h 50% 0.0 mm FEW
16:30 16.6 °C 6.1 °C 1015.3 hPa SW 3.2 km/h 7.4 km/h 50% 0.0 mm FEW
16:35 16.8 °C 6.0 °C 1015.2 hPa South 3.2 km/h 9.7 km/h 49% 0.0 mm FEW
16:40 16.9 °C 6.1 °C 1015.2 hPa SW 3.2 km/h 8.0 km/h 49% 0.0 mm FEW
16:45 16.9 °C 5.8 °C 1015.2 hPa South 4.7 km/h 7.6 km/h 48% 0.0 mm FEW
16:50 16.8 °C 6.0 °C 1015.1 hPa South 3.2 km/h 9.7 km/h 49% 0.0 mm FEW
16:55 16.9 °C 6.1 °C 1015.1 hPa SSW 4.7 km/h 7.6 km/h 49% 0.0 mm FEW
17:00 17.1 °C 6.0 °C 1015.1 hPa South 3.2 km/h 8.0 km/h 48% 0.0 mm FEW
17:05 17.0 °C 5.9 °C 1015.0 hPa SW 2.9 km/h 7.4 km/h 48% 0.0 mm FEW
17:10 16.9 °C 5.8 °C 1015.0 hPa WSW 4.7 km/h 3.7 km/h 48% 0.0 mm FEW
17:15 17.0 °C 5.9 °C 1015.0 hPa WSW 4.7 km/h   48% 0.0 mm FEW
17:20 17.1 °C 6.0 °C 1014.9 hPa Calm     48% 0.0 mm FEW
17:25 17.3 °C 5.9 °C 1014.9 hPa Calm     47% 0.0 mm FEW
17:30 17.3 °C 5.9 °C 1014.9 hPa Calm     47% 0.0 mm FEW
17:35 17.3 °C 5.9 °C 1014.8 hPa Calm   4.8 km/h 47% 0.0 mm FEW
17:40 17.1 °C 5.7 °C 1014.8 hPa WSW 2.3 km/h   47% 0.0 mm FEW
17:45 17.1 °C 5.7 °C 1014.8 hPa WSW 2.3 km/h   47% 0.0 mm FEW
17:50 17.1 °C 5.7 °C 1014.7 hPa Calm   5.6 km/h 47% 0.0 mm FEW
17:55 16.9 °C 5.8 °C 1014.7 hPa Calm   6.4 km/h 48% 0.0 mm FEW
18:00 16.6 °C 5.8 °C 1014.7 hPa ESE 3.2 km/h 8.0 km/h 49% 0.0 mm FEW
18:05 16.2 °C 5.8 °C 1014.7 hPa ESE 2.9 km/h 9.3 km/h 50% 0.0 mm FEW
18:10 15.7 °C 6.4 °C 1014.7 hPa ESE 4.7 km/h 11.1 km/h 54% 0.0 mm FEW
18:15 15.1 °C 6.9 °C 1014.7 hPa East 4.7 km/h 13.0 km/h 58% 0.0 mm FEW
18:20 14.7 °C 7.3 °C 1014.8 hPa East 7.6 km/h 11.1 km/h 61% 0.0 mm CLR
18:25 14.4 °C 7.4 °C 1014.8 hPa SE 7.6 km/h 9.5 km/h 63% 0.0 mm CLR
18:30 14.2 °C 7.5 °C 1014.8 hPa ESE 8.0 km/h 9.7 km/h 64% 0.0 mm CLR
18:35 14.1 °C 7.4 °C 1014.8 hPa SE 8.0 km/h 8.0 km/h 64% 0.0 mm CLR
18:40 13.9 °C 7.5 °C 1014.8 hPa SE 4.8 km/h 8.0 km/h 65% 0.0 mm CLR
18:45 13.9 °C 7.4 °C 1014.8 hPa SE 5.8 km/h 5.6 km/h 65% 0.0 mm CLR
18:50 13.8 °C 7.3 °C 1014.9 hPa SE 3.2 km/h 6.4 km/h 65% 0.0 mm CLR
18:55 13.8 °C 7.6 °C 1014.9 hPa SE 3.9 km/h 4.7 km/h 66% 0.0 mm CLR
19:00 13.7 °C 7.5 °C 1014.9 hPa SE 3.2 km/h 6.4 km/h 66% 0.0 mm CLR
19:05 13.7 °C 7.7 °C 1015.0 hPa SE 3.2 km/h 5.6 km/h 67% 0.0 mm CLR
19:10 13.7 °C 7.9 °C 1015.0 hPa SE 3.2 km/h 8.0 km/h 68% 0.0 mm CLR
19:15 13.7 °C 7.9 °C 1015.0 hPa SSW 3.9 km/h 7.4 km/h 68% 0.0 mm CLR
19:20 13.7 °C 8.1 °C 1015.1 hPa South 3.2 km/h 8.0 km/h 69% 0.0 mm CLR
19:25 13.6 °C 8.4 °C 1015.1 hPa West 3.9 km/h 9.3 km/h 71% 0.0 mm CLR
19:30 13.4 °C 8.3 °C 1015.1 hPa West 4.8 km/h 8.0 km/h 71% 0.0 mm CLR
19:35 13.3 °C 8.3 °C 1015.3 hPa West 5.0 km/h 5.6 km/h 72% 0.0 mm CLR
19:40 13.2 °C 8.4 °C 1015.3 hPa WSW 2.9 km/h 7.4 km/h 73% 0.0 mm CLR
19:45 13.1 °C 8.4 °C 1015.3 hPa SW 2.9 km/h 7.4 km/h 73% 0.0 mm CLR
19:50 13.1 °C 8.6 °C 1015.4 hPa SSW 3.9 km/h 7.4 km/h 74% 0.0 mm CLR
19:55 13.1 °C 8.6 °C 1015.4 hPa SW 3.2 km/h 8.0 km/h 74% 0.0 mm CLR
20:00 13.0 °C 8.7 °C 1015.4 hPa SW 3.2 km/h 8.0 km/h 75% 0.0 mm CLR
20:05 12.9 °C 8.8 °C 1015.5 hPa SW 4.7 km/h 8.7 km/h 76% 0.0 mm CLR
20:10 12.9 °C 8.9 °C 1015.5 hPa SW 4.8 km/h 11.3 km/h 77% 0.0 mm CLR
20:15 12.8 °C 8.9 °C 1015.5 hPa WSW 5.8 km/h 9.3 km/h 77% 0.0 mm CLR
20:20 12.7 °C 8.9 °C 1015.5 hPa WSW 5.8 km/h 7.4 km/h 78% 0.0 mm CLR
20:25 12.6 °C 8.9 °C 1015.5 hPa WSW 5.8 km/h 6.4 km/h 78% 0.0 mm CLR
20:30 12.5 °C 8.9 °C 1015.5 hPa WSW 4.8 km/h 8.0 km/h 79% 0.0 mm CLR
20:35 12.4 °C 8.8 °C 1015.5 hPa WSW 4.8 km/h 8.0 km/h 79% 0.0 mm CLR
20:40 12.4 °C 9.1 °C 1015.5 hPa SW 4.7 km/h 7.4 km/h 80% 0.0 mm CLR
20:45 12.3 °C 8.9 °C 1015.5 hPa SW 4.7 km/h 3.7 km/h 80% 0.0 mm CLR
20:50 12.3 °C 8.9 °C 1015.5 hPa SW 3.9 km/h 3.7 km/h 80% 0.0 mm CLR
20:55 12.2 °C 8.8 °C 1015.5 hPa SW 3.9 km/h 3.7 km/h 80% 0.0 mm CLR
21:00 12.2 °C 9.1 °C 1015.5 hPa SW 1.6 km/h 6.4 km/h 81% 0.0 mm CLR
21:05 12.2 °C 9.1 °C 1015.6 hPa WSW 2.3 km/h 7.4 km/h 81% 0.0 mm CLR
21:10 12.1 °C 9.1 °C 1015.6 hPa WSW 4.7 km/h 7.4 km/h 82% 0.0 mm CLR
21:15 12.1 °C 9.1 °C 1015.6 hPa SW 3.2 km/h 8.0 km/h 82% 0.0 mm CLR
21:20 12.1 °C 9.1 °C 1015.7 hPa SW 3.9 km/h   82% 0.0 mm CLR
21:25 12.0 °C 9.0 °C 1015.7 hPa SW 3.9 km/h   82% 0.0 mm CLR
21:30 11.9 °C 8.7 °C 1015.7 hPa Calm     81% 0.0 mm CLR
21:35 11.8 °C 8.7 °C 1015.8 hPa Calm   3.9 km/h 81% 0.0 mm CLR
21:40 11.6 °C 8.4 °C 1015.8 hPa Calm   4.7 km/h 81% 0.0 mm CLR
21:45 11.4 °C 8.4 °C 1015.8 hPa Calm   3.7 km/h 82% 0.0 mm CLR
21:50 11.2 °C 8.2 °C 1016.0 hPa SW 3.2 km/h 4.8 km/h 82% 0.0 mm CLR
21:55 11.1 °C 8.3 °C 1016.0 hPa SW 3.2 km/h 3.2 km/h 83% 0.0 mm CLR
22:00 11.0 °C 8.2 °C 1016.0 hPa Calm   4.8 km/h 83% 0.0 mm CLR
22:05 10.9 °C 8.3 °C 1016.1 hPa Calm   3.9 km/h 84% 0.0 mm CLR
22:10 10.8 °C 8.2 °C 1016.1 hPa SW 3.2 km/h 8.0 km/h 84% 0.0 mm CLR
22:15 10.8 °C 8.2 °C 1016.1 hPa South 2.9 km/h 9.3 km/h 84% 0.0 mm CLR
22:20 10.7 °C 8.3 °C 1016.1 hPa SSW 4.8 km/h 9.7 km/h 85% 0.0 mm CLR
22:25 10.7 °C 8.3 °C 1016.1 hPa SSW 5.0 km/h 7.4 km/h 85% 0.0 mm CLR
22:30 10.7 °C 8.4 °C 1016.1 hPa SW 6.9 km/h 9.3 km/h 86% 0.0 mm CLR
22:35 10.7 °C 8.4 °C 1016.3 hPa SW 6.9 km/h 9.3 km/h 86% 0.0 mm CLR
22:40 10.7 °C 8.3 °C 1016.3 hPa SSW 8.0 km/h 11.3 km/h 85% 0.0 mm CLR
22:45 10.7 °C 8.3 °C 1016.3 hPa SSW 8.0 km/h 9.7 km/h 85% 0.0 mm CLR
22:50 10.6 °C 8.2 °C 1016.4 hPa SSW 8.0 km/h 11.3 km/h 85% 0.0 mm CLR
22:55 10.6 °C 8.0 °C 1016.4 hPa SSW 6.9 km/h 7.4 km/h 84% 0.0 mm CLR
23:00 10.6 °C 8.2 °C 1016.4 hPa SSW 8.0 km/h 8.0 km/h 85% 0.0 mm CLR
23:05 10.6 °C 8.0 °C 1016.4 hPa South 6.4 km/h 9.3 km/h 84% 0.0 mm CLR
23:10 10.6 °C 8.0 °C 1016.4 hPa SSW 5.8 km/h 9.3 km/h 84% 0.0 mm CLR
23:15 10.6 °C 8.0 °C 1016.4 hPa South 5.8 km/h 9.3 km/h 84% 0.0 mm CLR
23:20 10.6 °C 8.0 °C 1016.4 hPa SW 6.4 km/h 9.3 km/h 84% 0.0 mm CLR
23:25 10.5 °C 7.9 °C 1016.4 hPa WSW 6.4 km/h 9.3 km/h 84% 0.0 mm CLR
23:30 10.4 °C 7.8 °C 1016.4 hPa SW 8.0 km/h 9.7 km/h 84% 0.0 mm CLR
23:35 10.4 °C 8.0 °C 1016.4 hPa West 6.4 km/h 11.1 km/h 85% 0.0 mm CLR
23:40 10.3 °C 7.9 °C 1016.4 hPa WSW 8.0 km/h 8.0 km/h 85% 0.0 mm CLR
23:45 10.3 °C 7.9 °C 1016.4 hPa West 6.9 km/h 7.4 km/h 85% 0.0 mm CLR
23:50 10.2 °C 7.8 °C 1016.3 hPa WSW 5.8 km/h 13.0 km/h 85% 0.0 mm CLR
23:55 10.2 °C 7.8 °C 1016.3 hPa West 5.8 km/h 12.2 km/h 85% 0.0 mm CLR
Murcia-Puente Tocinos, España
Compliments of Weather Underground - 2.75 mb

La estación de MeteoMurcia.com, publica sus datos en los siguientes proyectos:

Weather Underground PWS IMURCIAP2 Meteoclimatic www.awekas.at

W3Counter
Web Analytics